This is the latest recevied weather packets stored in our database for station/object DG8SF-13. If no packets are shown the sender has not sent any weather packets the latest 10 day(s).
| Time | Temp. | Humidity | Pressure | Rain* | Wind** | Luminosity | Snow |
|---|---|---|---|---|---|---|---|
| 1777303280 | 21.11° C | 29% | 1017.9 hPa | 0 mm | - | - | - |
| 1777302971 | 21.67° C | 29% | 1017.9 hPa | 0 mm | - | - | - |
| 1777302659 | 21.67° C | 28% | 1017.9 hPa | 0 mm | - | - | - |
| 1777302346 | 21.67° C | 29% | 1017.9 hPa | 0 mm | - | - | - |
| 1777302033 | 21.67° C | 29% | 1018 hPa | 0 mm | - | - | - |
| 1777301723 | 21.11° C | 29% | 1018.1 hPa | 0 mm | - | - | - |
| 1777301409 | 20.56° C | 30% | 1018.1 hPa | 0 mm | - | - | - |
| 1777301103 | 21.11° C | 30% | 1018.1 hPa | 0 mm | - | - | - |
| 1777300785 | 20.56° C | 30% | 1018.1 hPa | 0 mm | - | - | - |
| 1777300475 | 21.67° C | 29% | 1018.1 hPa | 0 mm | - | - | - |
| 1777300161 | 21.67° C | 29% | 1018.2 hPa | 0 mm | - | - | - |
| 1777299850 | 21.67° C | 29% | 1018.2 hPa | 0 mm | - | - | - |
| 1777299538 | 22.22° C | 29% | 1018.2 hPa | 0 mm | - | - | - |
| 1777299226 | 22.22° C | 27% | 1018.3 hPa | 0 mm | - | - | - |
| 1777298915 | 22.22° C | 28% | 1018.3 hPa | 0 mm | - | - | - |
| 1777298600 | 22.78° C | 27% | 1018.4 hPa | 0 mm | - | - | - |
| 1777298291 | 21.67° C | 28% | 1018.5 hPa | 0 mm | - | - | - |
| 1777297977 | 23.33° C | 27% | 1018.6 hPa | 0 mm | - | - | - |
| 1777297667 | 23.33° C | 26% | 1018.6 hPa | 0 mm | - | - | - |
| 1777297354 | 21.67° C | 28% | 1018.7 hPa | 0 mm | - | - | - |
| 1777297041 | 21.67° C | 28% | 1018.7 hPa | 0 mm | - | - | - |
| 1777296731 | 22.78° C | 25% | 1018.8 hPa | 0 mm | - | - | - |
| 1777296417 | 22.78° C | 24% | 1018.9 hPa | 0 mm | - | - | - |
| 1777296109 | 23.33° C | 24% | 1019 hPa | 0 mm | - | - | - |
| 1777295794 | 22.22° C | 25% | 1019 hPa | 0 mm | - | - | - |
* Rain latest hour (hover to see other rain measurements)
** Current wind speed in m/s (hover to see current wind gust speed)